To NAV CANADA Home Page Login to a new session Search on AWWS site Disclaimer Vers la page française équivalente Tips FAQ What's new on the site To the Forecasts and Observations / NOTAM section To "File a Flight Plan" website Publications and other links Update of the User's profile FIC Telephone Numbers My Weather Data Folder Route Weather Data Regional Weather Data Local Weather Data To the Forecasts and Observations / NOTAM section
Request Generated 01/22/2019 at 02:57:58 UTC . Weather information available at that time is displayed.

METAR/TAF

If you find any discrepancies between the coded METAR/TAF and the plain language METAR/TAF please use the coded METAR/TAF. LWIS bulletins are not decoded in plain language.

TORONTO/LESTER B. PEARSON INTL/ON    

METAR CYYZ 220200Z 32011KT 15SM SKC M14/M21 A3052 RMK SLP352=
METAR
LOCATION
CYYZ - TORONTO/LESTER B. PEARSON INTL/ON
DATE - TIME
22 JANUARY 2019 - 0200 UTC
WIND
320 TRUE @ 11  KNOTS
VISIBILITY
15 STAT.  MILES
RUNWAY VISUAL RANGE
WEATHER
CLOUDINESS
CLEAR SKY
TEMP / DEWPOINT
-14 C / -21 C
ALTIMETER
30.52 IN HG
RECENT WEATHER
WIND SHEAR

METAR CYYZ 220100Z 31011KT 15SM SKC M14/M21 A3050 RMK SLP347=
METAR
LOCATION
CYYZ - TORONTO/LESTER B. PEARSON INTL/ON
DATE - TIME
22 JANUARY 2019 - 0100 UTC
WIND
310 TRUE @ 11  KNOTS
VISIBILITY
15 STAT.  MILES
RUNWAY VISUAL RANGE
WEATHER
CLOUDINESS
CLEAR SKY
TEMP / DEWPOINT
-14 C / -21 C
ALTIMETER
30.50 IN HG
RECENT WEATHER
WIND SHEAR

METAR CYYZ 220000Z 30011KT 15SM SKC M13/M21 A3050 RMK SLP347=
METAR
LOCATION
CYYZ - TORONTO/LESTER B. PEARSON INTL/ON
DATE - TIME
22 JANUARY 2019 - 0000 UTC
WIND
300 TRUE @ 11  KNOTS
VISIBILITY
15 STAT.  MILES
RUNWAY VISUAL RANGE
WEATHER
CLOUDINESS
CLEAR SKY
TEMP / DEWPOINT
-13 C / -21 C
ALTIMETER
30.50 IN HG
RECENT WEATHER
WIND SHEAR

TAF CYYZ 220238Z 2203/2306 33007KT P6SM FEW040 FM220600 VRB03KT P6SM SCT250 FM221400 17005KT P6SM BKN120 OVC200 FM221700 12010G20KT P6SM OVC100 FM222100 14010G20KT P6SM BKN140 OVC240 FM230400 16007KT 21/2SM -SN OVC030 RMK NXT FCST BY 220600Z=
TAF
LOCATION

CYYZ - TORONTO/LESTER B. PEARSON INTL/ON
VALIDITY [UTC]
22 JAN - 0238 to
23 JAN - 0600
 
TIMES
[UTC]
WIND
[DEGREES TRUE]
VISIBILITY
[STAT. MILES]
WEATHER
CLOUDINESS
[FEET AGL]
 
22 JAN - 0300 to
22 JAN - 0600
330 @ 7 KNOTS
6+
NIL
4000 FEW
 
22 JAN - 0600 to
22 JAN - 1400
VARIABLE @ 3 KNOTS
6+
NIL
25000 SCATTERED
 
22 JAN - 1400 to
22 JAN - 1700
170 @ 5 KNOTS
6+
NIL
12000 BROKEN
20000 OVERCAST
 
22 JAN - 1700 to
22 JAN - 2100
120 @ 10 KNOTS
GUSTS 20 KNOTS
6+
NIL
10000 OVERCAST
 
22 JAN - 2100 to
23 JAN - 0400
140 @ 10 KNOTS
GUSTS 20 KNOTS
6+
NIL
14000 BROKEN
24000 OVERCAST
 
23 JAN - 0400 to
23 JAN - 0600
160 @ 7 KNOTS
2 1/2
LIGHT SNOW
3000 OVERCAST
REMARKS
THE NEXT FORECAST WILL BE ISSUED BY 0600 UTC ON DAY 22


Your time UTC time
Weather data provided by Environment Canada and NAV CANADA